Time;durP1;ratioP1;P1;durP2;ratioP2;P2;SDS_P1;SDS_P2;PMS_P1;PMS_P2;Temp;Humidity;BMP_temperature;BMP_pressure;BME280_temperature;BME280_humidity;BME280_pressure;Samples;Min_cycle;Max_cycle;Signal;HPM_P1;HPM_P2
2020/12/18 00:01:31;;;;;;;30.90;18.00;;;;;;;2.06;80.41;96140.91;4989170;28;20066;-61
2020/12/18 00:03:57;;;;;;;38.65;16.42;;;;;;;0.61;85.16;96187.22;4989328;28;20034;-62
2020/12/18 00:06:23;;;;;;;153.65;22.77;;;;;;;0.51;86.54;96185.91;4989168;28;20022;-62
2020/12/18 00:08:50;;;;;;;49.33;19.83;;;;;;;1.04;84.34;96185.41;4990686;28;20085;-61
2020/12/18 00:11:20;;;;;;;75.70;20.98;;;;;;;1.05;83.95;96183.59;4988973;28;20053;-61
2020/12/18 00:13:45;;;;;;;51.50;22.17;;;;;;;0.94;83.65;96161.53;4989262;28;20042;-62
2020/12/18 00:16:11;;;;;;;52.13;22.63;;;;;;;1.04;84.01;96167.06;4989031;28;20119;-62
2020/12/18 00:18:36;;;;;;;32.88;20.55;;;;;;;1.33;83.26;96169.16;4987612;28;20172;-61
2020/12/18 00:21:01;;;;;;;27.33;20.02;;;;;;;1.55;82.48;96175.53;4991036;28;20246;-62
2020/12/18 00:23:27;;;;;;;28.48;19.70;;;;;;;1.67;81.89;96179.00;4988787;28;20046;-62
2020/12/18 00:25:52;;;;;;;25.52;19.25;;;;;;;1.85;81.43;96191.28;4989146;28;20034;-61
2020/12/18 00:28:17;;;;;;;26.58;21.45;;;;;;;1.93;80.79;96187.53;4987359;28;20098;-61
2020/12/18 00:30:43;;;;;;;28.17;20.83;;;;;;;1.96;80.66;96187.91;4988808;28;20046;-62
2020/12/18 00:33:08;;;;;;;27.48;20.58;;;;;;;2.04;81.11;96184.94;4989401;28;20116;-61
2020/12/18 00:35:34;;;;;;;26.95;20.23;;;;;;;2.02;80.39;96168.63;4988917;28;20050;-62
2020/12/18 00:37:59;;;;;;;25.15;20.05;;;;;;;2.11;80.03;96174.38;4987584;28;20034;-61
2020/12/18 00:40:25;;;;;;;26.00;19.60;;;;;;;2.22;80.20;96178.84;4988520;28;20113;-61
2020/12/18 00:42:50;;;;;;;28.48;19.77;;;;;;;2.23;79.84;96166.50;4988581;28;20121;-61
2020/12/18 00:45:15;;;;;;;23.98;18.80;;;;;;;2.32;79.45;96173.03;4988526;28;20472;-62
2020/12/18 00:47:41;;;;;;;25.42;18.92;;;;;;;2.31;79.31;96166.19;4989421;28;20133;-61
2020/12/18 00:50:06;;;;;;;24.35;19.48;;;;;;;2.43;79.29;96167.00;4988602;28;20051;-60
2020/12/18 00:52:31;;;;;;;26.10;19.35;;;;;;;2.51;79.01;96161.41;4988629;28;20129;-61
2020/12/18 00:54:57;;;;;;;20.02;17.60;;;;;;;2.53;78.65;96151.47;4988901;28;20068;-61
2020/12/18 00:57:22;;;;;;;24.77;18.25;;;;;;;2.48;78.12;96143.47;4992229;28;20022;-61
2020/12/18 00:59:47;;;;;;;32.65;21.52;;;;;;;2.49;77.35;96146.91;4993947;28;20050;-61
2020/12/18 01:02:13;;;;;;;23.30;19.05;;;;;;;2.58;77.47;96175.22;4992305;28;20042;-60
2020/12/18 01:04:38;;;;;;;34.63;23.60;;;;;;;2.42;77.09;96154.91;4990979;28;20105;-60
2020/12/18 01:07:03;;;;;;;23.75;19.65;;;;;;;2.49;76.96;96173.16;4990919;28;20061;-61
2020/12/18 01:09:29;;;;;;;22.45;18.55;;;;;;;2.62;76.90;96199.22;4991971;28;20358;-61
2020/12/18 01:11:54;;;;;;;28.25;21.23;;;;;;;2.58;77.29;96193.63;4992557;28;20041;-61
2020/12/18 01:14:20;;;;;;;22.05;17.48;;;;;;;2.38;77.11;96219.38;4992215;28;20089;-62
2020/12/18 01:16:53;;;;;;;19.30;17.25;;;;;;;1.89;78.85;96181.94;4992202;28;20431;-61
2020/12/18 01:19:19;;;;;;;29.55;21.00;;;;;;;2.35;78.36;96177.81;4991799;28;20030;-62
2020/12/18 01:21:45;;;;;;;17.83;15.02;;;;;;;2.73;78.09;96187.91;4991841;28;20100;-61
2020/12/18 01:24:11;;;;;;;15.85;14.15;;;;;;;2.89;77.11;96167.22;4994069;28;20030;-61
2020/12/18 01:26:36;;;;;;;14.95;13.43;;;;;;;3.15;77.30;96189.59;4992528;28;20488;-62
2020/12/18 01:29:02;;;;;;;15.23;13.50;;;;;;;3.22;76.48;96183.16;4991493;28;20038;-61
2020/12/18 01:31:27;;;;;;;16.45;14.75;;;;;;;3.29;75.98;96175.97;4990345;28;20116;-61
2020/12/18 01:33:52;;;;;;;15.52;14.02;;;;;;;3.35;75.44;96177.66;4991917;28;20085;-61
2020/12/18 01:36:19;;;;;;;18.33;16.17;;;;;;;3.20;74.88;96143.19;4990535;28;20022;-62
2020/12/18 01:38:45;;;;;;;15.85;14.25;;;;;;;3.47;74.89;96179.47;4992193;28;20038;-61
2020/12/18 01:41:10;;;;;;;19.15;17.13;;;;;;;3.40;74.51;96174.34;4991656;28;20046;-62
2020/12/18 01:43:36;;;;;;;22.67;20.20;;;;;;;3.34;74.71;96167.38;4991678;28;20053;-61
2020/12/18 01:46:08;;;;;;;22.50;19.48;;;;;;;3.39;74.34;96180.63;4991767;28;20054;-62
2020/12/18 01:48:34;;;;;;;25.73;21.30;;;;;;;3.29;74.68;96173.34;4991377;28;20129;-62
2020/12/18 01:50:59;;;;;;;27.67;19.92;;;;;;;3.11;74.76;96152.44;4992188;28;20075;-62
2020/12/18 01:53:27;;;;;;;25.95;20.65;;;;;;;3.18;74.75;96181.25;4991352;28;20039;-61
2020/12/18 01:55:53;;;;;;;21.30;17.95;;;;;;;2.84;74.68;96144.28;4991607;28;20039;-60
2020/12/18 01:58:19;;;;;;;22.98;18.65;;;;;;;3.00;75.15;96180.34;4991160;28;20042;-60
2020/12/18 02:00:47;;;;;;;20.13;17.35;;;;;;;2.83;75.16;96166.31;4991328;28;20042;-60
2020/12/18 02:03:13;;;;;;;27.83;20.48;;;;;;;2.81;75.50;96163.09;4991225;28;20038;-61
2020/12/18 02:05:38;;;;;;;21.13;18.60;;;;;;;2.88;75.33;96163.81;4993299;28;20042;-60
2020/12/18 02:08:04;;;;;;;29.35;21.38;;;;;;;2.89;75.60;96170.66;4990157;28;20058;-60
2020/12/18 02:10:29;;;;;;;24.98;20.77;;;;;;;2.72;75.59;96140.88;4990983;28;20053;-60
2020/12/18 02:12:55;;;;;;;27.95;21.25;;;;;;;2.78;75.62;96150.44;4991031;28;20042;-60
2020/12/18 02:15:22;;;;;;;19.27;16.48;;;;;;;2.91;75.99;96167.78;4989840;28;20042;-61
2020/12/18 02:17:50;;;;;;;20.40;17.63;;;;;;;2.72;75.43;96140.88;4993051;28;20030;-60
2020/12/18 02:20:17;;;;;;;19.38;16.73;;;;;;;2.75;75.82;96138.56;4989265;28;20384;-61
2020/12/18 02:22:42;;;;;;;24.27;16.98;;;;;;;2.85;75.84;96141.41;4989583;28;20513;-60
2020/12/18 02:25:10;;;;;;;24.10;18.50;;;;;;;2.96;75.54;96155.56;4991144;28;20117;-61
2020/12/18 02:27:39;;;;;;;30.85;22.23;;;;;;;2.84;75.71;96128.50;4989493;28;20383;-61
2020/12/18 02:30:07;;;;;;;27.08;21.02;;;;;;;3.00;75.50;96158.53;4992407;28;20392;-62
2020/12/18 02:32:32;;;;;;;22.10;18.17;;;;;;;2.89;75.42;96133.88;4989195;28;20034;-61
2020/12/18 02:34:58;;;;;;;26.25;21.00;;;;;;;2.99;75.80;96134.06;4990835;28;20578;-62
2020/12/18 02:37:23;;;;;;;16.92;15.15;;;;;;;2.90;75.49;96122.31;4990715;28;20039;-61
2020/12/18 02:39:49;;;;;;;19.27;15.20;;;;;;;3.07;74.99;96141.63;4990368;28;20117;-61
2020/12/18 02:42:14;;;;;;;17.08;15.20;;;;;;;3.11;74.92;96145.34;4990429;28;20134;-61
2020/12/18 02:44:39;;;;;;;17.88;15.98;;;;;;;3.27;74.57;96149.09;4992485;28;20049;-60
2020/12/18 02:47:05;;;;;;;17.13;15.18;;;;;;;3.21;74.58;96129.00;4990458;28;20065;-61
2020/12/18 02:49:30;;;;;;;21.83;16.15;;;;;;;3.12;74.51;96125.13;4990132;28;20080;-61
2020/12/18 02:51:56;;;;;;;19.73;16.52;;;;;;;3.10;74.56;96125.38;4990116;28;20053;-61
2020/12/18 02:54:21;;;;;;;19.33;15.52;;;;;;;2.93;74.37;96105.31;4989108;28;20042;-62
2020/12/18 02:56:47;;;;;;;17.10;15.30;;;;;;;2.92;74.82;96104.50;4992266;28;20033;-61
2020/12/18 02:59:12;;;;;;;23.20;18.27;;;;;;;3.12;74.67;96138.28;4988542;28;20654;-62
2020/12/18 03:01:37;;;;;;;18.48;16.58;;;;;;;2.90;74.85;96121.53;4990063;28;20031;-60
2020/12/18 03:04:03;;;;;;;21.35;16.23;;;;;;;2.84;74.92;96113.53;4988930;28;20062;-61
2020/12/18 03:06:28;;;;;;;20.83;17.73;;;;;;;2.98;75.06;96144.84;4990200;28;20026;-61
2020/12/18 03:08:53;;;;;;;18.75;15.63;;;;;;;2.84;74.88;96118.00;4991626;28;20113;-62
2020/12/18 03:11:19;;;;;;;25.35;18.30;;;;;;;2.95;75.38;96137.41;4989881;28;20038;-61
2020/12/18 03:13:47;;;;;;;27.88;20.73;;;;;;;2.89;75.36;96135.69;4990003;28;20692;-62
2020/12/18 03:16:13;;;;;;;26.77;17.38;;;;;;;2.85;75.27;96123.00;4990003;28;20043;-61
2020/12/18 03:18:39;;;;;;;26.98;19.98;;;;;;;2.83;75.32;96126.91;4989220;28;20042;-61
2020/12/18 03:21:04;;;;;;;27.30;19.80;;;;;;;2.93;75.18;96142.91;4991720;28;20022;-61
2020/12/18 03:23:29;;;;;;;25.10;19.40;;;;;;;2.82;75.24;96120.06;4989382;28;20084;-61
2020/12/18 03:25:55;;;;;;;26.08;19.40;;;;;;;2.82;75.39;96128.75;4989744;28;20443;-62
2020/12/18 03:28:20;;;;;;;30.25;21.23;;;;;;;2.83;75.29;96117.19;4989199;28;20520;-60
2020/12/18 03:30:45;;;;;;;23.83;17.38;;;;;;;2.90;75.08;96122.31;4988516;28;20094;-61
2020/12/18 03:33:11;;;;;;;23.40;17.45;;;;;;;2.98;75.17;96140.38;4990408;28;20113;-61
2020/12/18 03:35:37;;;;;;;35.40;22.20;;;;;;;2.93;75.02;96121.06;4989566;28;20046;-60
2020/12/18 03:38:02;;;;;;;27.45;18.98;;;;;;;3.11;75.18;96144.56;4989409;28;20046;-60
2020/12/18 03:40:27;;;;;;;23.85;17.55;;;;;;;3.18;75.09;96140.00;4988890;28;20050;-60
2020/12/18 03:42:53;;;;;;;23.63;17.52;;;;;;;3.08;75.46;96109.03;4989128;28;20038;-60
2020/12/18 03:45:18;;;;;;;18.38;15.25;;;;;;;3.31;75.24;96138.91;5009153;22;20409;-64
2020/12/18 03:47:43;;;;;;;19.45;14.25;;;;;;;3.35;75.14;96126.91;5010739;28;20042;-63
2020/12/18 03:50:08;;;;;;;20.00;15.23;;;;;;;3.35;74.78;96143.47;5008647;28;20125;-64
2020/12/18 03:52:34;;;;;;;20.95;16.23;;;;;;;3.49;74.61;96143.22;5008591;28;20133;-64
2020/12/18 03:54:59;;;;;;;17.60;15.52;;;;;;;3.57;74.92;96135.72;5008762;28;20414;-64
2020/12/18 03:57:25;;;;;;;20.80;15.25;;;;;;;3.71;74.59;96132.84;5008632;28;20026;-64
2020/12/18 03:59:50;;;;;;;19.95;14.60;;;;;;;3.88;74.19;96139.72;5010439;28;20032;-64
2020/12/18 04:02:16;;;;;;;20.23;16.27;;;;;;;3.95;73.94;96123.78;5008363;28;20111;-64
2020/12/18 04:04:41;;;;;;;19.17;15.43;;;;;;;4.04;73.67;96119.72;5008637;28;20030;-64
2020/12/18 04:07:07;;;;;;;18.40;14.57;;;;;;;4.18;73.45;96130.75;5008645;28;20680;-64
2020/12/18 04:09:32;;;;;;;15.90;13.13;;;;;;;4.25;72.70;96128.75;5008339;28;20081;-63
2020/12/18 04:11:58;;;;;;;14.88;13.27;;;;;;;4.30;72.16;96128.84;5010535;28;20046;-65
2020/12/18 04:14:23;;;;;;;15.98;14.27;;;;;;;4.44;71.88;96137.19;5007216;28;20069;-64
2020/12/18 04:16:48;;;;;;;14.45;12.25;;;;;;;4.27;71.45;96131.16;5008545;28;20487;-64
2020/12/18 04:19:14;;;;;;;14.93;11.63;;;;;;;4.29;71.78;96136.97;5008378;28;20408;-64
2020/12/18 04:21:39;;;;;;;12.40;11.13;;;;;;;4.42;71.57;96144.56;5007239;28;20042;-64
2020/12/18 04:24:05;;;;;;;15.52;13.93;;;;;;;4.28;71.56;96119.56;5009311;28;20026;-64
2020/12/18 04:26:30;;;;;;;13.38;11.85;;;;;;;3.90;70.99;96132.41;5008265;28;20042;-64
2020/12/18 04:28:55;;;;;;;11.75;10.55;;;;;;;3.58;72.90;96150.50;5008095;28;20037;-64
2020/12/18 04:31:21;;;;;;;19.52;14.20;;;;;;;2.91;75.35;96147.56;5010568;28;20037;-64
2020/12/18 04:33:47;;;;;;;18.98;14.27;;;;;;;2.27;78.53;96159.78;5011314;28;20038;-64
2020/12/18 04:36:12;;;;;;;16.48;14.38;;;;;;;2.15;78.44;96151.06;5012683;28;20053;-65
2020/12/18 04:38:37;;;;;;;15.23;13.48;;;;;;;1.58;80.52;96169.84;5012757;28;20061;-63
2020/12/18 04:41:03;;;;;;;19.52;15.75;;;;;;;1.74;81.10;96165.78;5012678;28;20306;-63
2020/12/18 04:43:29;;;;;;;18.77;14.50;;;;;;;2.02;79.71;96159.97;5011723;28;20547;-63
2020/12/18 04:45:58;;;;;;;15.80;13.95;;;;;;;2.10;79.15;96143.91;5012262;28;20126;-64
2020/12/18 04:48:28;;;;;;;15.90;14.27;;;;;;;1.97;78.86;96144.88;5012094;28;20033;-64
2020/12/18 04:50:57;;;;;;;17.58;14.52;;;;;;;2.24;78.64;96144.47;5014194;28;20025;-64
2020/12/18 04:53:28;;;;;;;17.42;14.20;;;;;;;2.37;78.41;96148.72;5010914;28;20046;-64
2020/12/18 04:55:54;;;;;;;23.75;15.85;;;;;;;2.45;78.01;96148.38;5012188;28;20136;-65
2020/12/18 04:58:22;;;;;;;18.73;13.65;;;;;;;2.51;77.26;96150.91;5011624;28;20037;-64
2020/12/18 05:00:47;;;;;;;23.08;16.50;;;;;;;2.46;77.31;96150.00;5012092;28;20050;-63
2020/12/18 05:03:17;;;;;;;17.88;14.68;;;;;;;2.40;77.06;96143.81;5011950;28;20043;-64
2020/12/18 05:05:42;;;;;;;20.40;16.48;;;;;;;2.22;77.26;96146.53;5014017;28;20022;-64
2020/12/18 05:08:07;;;;;;;19.58;15.73;;;;;;;2.21;77.18;96132.63;5012059;28;20065;-63
2020/12/18 05:10:33;;;;;;;17.75;14.43;;;;;;;2.34;76.89;96139.47;5011678;28;20531;-64
2020/12/18 05:12:58;;;;;;;20.33;14.85;;;;;;;2.34;76.94;96149.97;5010141;28;20431;-64
2020/12/18 05:15:23;;;;;;;24.65;17.98;;;;;;;2.24;77.02;96133.97;5011792;28;20034;-64
2020/12/18 05:17:51;;;;;;;21.25;16.05;;;;;;;2.30;76.99;96146.19;5013688;28;20468;-64
2020/12/18 05:20:16;;;;;;;20.73;17.35;;;;;;;2.33;77.18;96143.13;5011445;28;20045;-65
2020/12/18 05:22:42;;;;;;;24.23;17.15;;;;;;;2.39;77.08;96165.84;5011489;28;20364;-64
2020/12/18 05:25:09;;;;;;;22.30;16.75;;;;;;;2.34;76.94;96152.59;5011619;28;20068;-64
2020/12/18 05:27:39;;;;;;;19.02;16.67;;;;;;;2.36;77.09;96157.63;5011510;28;20080;-64
2020/12/18 05:30:06;;;;;;;20.67;16.75;;;;;;;2.36;76.94;96166.31;5013347;28;20048;-64
2020/12/18 05:32:34;;;;;;;21.65;16.70;;;;;;;2.31;77.17;96150.44;5026423;28;20038;-64
2020/12/18 05:34:59;;;;;;;20.65;15.07;;;;;;;2.34;76.68;96157.84;5026580;28;20061;-64
2020/12/18 05:37:36;;;;;;;19.15;16.35;;;;;;;2.40;76.91;96174.50;5011295;28;20498;-64
2020/12/18 05:40:05;;;;;;;21.80;16.40;;;;;;;2.23;77.05;96172.56;5010878;28;20487;-65
2020/12/18 05:42:39;;;;;;;23.92;18.33;;;;;;;2.32;77.98;96179.09;5026045;28;20062;-64
2020/12/18 05:45:16;;;;;;;22.13;16.90;;;;;;;2.40;77.17;96177.94;5012945;28;20030;-64
2020/12/18 05:47:57;;;;;;;19.77;16.58;;;;;;;2.19;76.89;96173.22;5010322;28;20177;-64
2020/12/18 05:50:41;;;;;;;21.85;17.83;;;;;;;1.61;80.31;96193.00;5011066;28;20038;-64
2020/12/18 05:53:10;;;;;;;21.40;17.60;;;;;;;1.78;79.73;96166.94;5010867;28;20398;-64
2020/12/18 05:55:41;;;;;;;21.48;17.35;;;;;;;1.96;79.14;96187.91;5026009;28;20042;-63
2020/12/18 05:58:13;;;;;;;16.95;15.15;;;;;;;1.57;80.49;96199.72;5010792;28;20041;-63
2020/12/18 06:00:40;;;;;;;18.50;14.32;;;;;;;1.50;80.43;96189.31;5011145;28;20026;-63
2020/12/18 06:03:10;;;;;;;17.63;14.90;;;;;;;1.28;81.78;96196.03;5012517;28;20026;-68
2020/12/18 06:05:37;;;;;;;16.70;14.95;;;;;;;1.59;81.05;96202.09;5010853;28;20053;-72
2020/12/18 06:08:13;;;;;;;20.25;15.93;;;;;;;1.55;80.46;96196.53;5009382;28;20049;-65
2020/12/18 06:10:39;;;;;;;16.70;14.93;;;;;;;0.90;83.35;96201.47;5010770;28;20037;-65
2020/12/18 06:13:04;;;;;;;19.75;16.23;;;;;;;1.21;81.72;96171.72;5010468;28;20042;-65
2020/12/18 06:15:33;;;;;;;19.58;16.60;;;;;;;1.05;82.06;96175.72;5009639;28;20050;-65
2020/12/18 06:18:02;;;;;;;21.17;16.23;;;;;;;1.02;82.80;96197.09;5012372;28;20422;-68
2020/12/18 06:20:33;;;;;;;26.15;18.52;;;;;;;1.37;80.96;96189.47;5010168;28;20042;-67
2020/12/18 06:23:00;;;;;;;24.52;18.40;;;;;;;1.52;80.46;96195.13;5011510;28;20038;-66
2020/12/18 06:25:25;;;;;;;27.90;20.15;;;;;;;1.58;79.87;96180.31;5011526;28;20112;-63
2020/12/18 06:28:03;;;;;;;24.55;17.40;;;;;;;1.68;79.97;96187.66;5026065;28;20501;-63
2020/12/18 06:30:29;;;;;;;25.38;18.50;;;;;;;1.70;79.50;96188.25;5010996;28;20030;-66
2020/12/18 06:32:56;;;;;;;24.10;19.45;;;;;;;1.60;79.55;96180.13;5013059;28;20029;-65
2020/12/18 06:35:30;;;;;;;21.73;17.67;;;;;;;1.66;79.88;96190.53;5026138;28;20425;-67
2020/12/18 06:37:57;;;;;;;19.50;16.17;;;;;;;1.59;80.00;96189.00;5011174;28;20042;-66
2020/12/18 06:40:31;;;;;;;19.40;16.95;;;;;;;1.60;79.86;96195.88;5010793;28;20053;-67
2020/12/18 06:42:58;;;;;;;20.05;16.35;;;;;;;1.57;79.60;96176.09;5026249;28;20026;-65
2020/12/18 06:45:25;;;;;;;25.92;18.70;;;;;;;1.74;79.04;96192.03;5011218;28;20026;-69
2020/12/18 06:47:50;;;;;;;28.63;19.00;;;;;;;1.65;78.95;96173.19;5011958;28;20026;-67
2020/12/18 06:50:16;;;;;;;25.73;19.23;;;;;;;1.70;78.87;96183.03;5010925;28;20052;-69
2020/12/18 06:53:13;;;;;;;28.15;19.70;;;;;;;1.74;78.29;96187.59;5010751;28;20030;-69
2020/12/18 06:55:40;;;;;;;27.55;19.08;;;;;;;1.78;78.50;96199.22;4999093;28;20046;-69
2020/12/18 06:58:05;;;;;;;25.88;19.05;;;;;;;1.79;78.09;96205.28;5010425;28;20487;-69
2020/12/18 07:00:32;;;;;;;22.33;17.75;;;;;;;1.78;77.81;96204.47;5010869;28;20049;-69
2020/12/18 07:02:57;;;;;;;27.38;19.13;;;;;;;1.80;77.86;96197.19;5012625;28;20531;-69
2020/12/18 07:05:39;;;;;;;21.17;17.02;;;;;;;1.87;77.79;96204.19;5010777;28;20045;-69
2020/12/18 07:08:04;;;;;;;21.05;17.20;;;;;;;1.89;77.99;96204.75;5010256;28;20045;-69
2020/12/18 07:10:37;;;;;;;23.52;18.17;;;;;;;1.89;77.87;96204.75;5005807;28;20056;-68
2020/12/18 07:13:04;;;;;;;20.60;16.38;;;;;;;1.91;77.46;96206.13;5008542;28;20034;-68
2020/12/18 07:15:45;;;;;;;20.00;17.65;;;;;;;1.95;77.12;96206.50;5010621;28;20030;-70
2020/12/18 07:18:22;;;;;;;19.25;15.68;;;;;;;2.03;77.29;96214.03;5012569;28;20022;-67
2020/12/18 07:20:58;;;;;;;20.90;16.73;;;;;;;2.06;77.32;96209.16;5011113;28;20061;-76
2020/12/18 07:23:26;;;;;;;22.25;16.70;;;;;;;1.98;77.11;96188.47;5011918;28;20030;-69
2020/12/18 07:25:52;;;;;;;22.75;17.70;;;;;;;2.03;77.34;96193.84;5009170;28;20045;-67
2020/12/18 07:28:19;;;;;;;19.55;16.90;;;;;;;2.04;77.14;96184.94;5009822;28;20041;-67
2020/12/18 07:30:46;;;;;;;20.10;16.48;;;;;;;2.24;76.86;96210.91;5010454;28;20080;-66
2020/12/18 07:33:13;;;;;;;23.75;18.52;;;;;;;2.15;76.65;96187.81;5010241;28;20022;-67
2020/12/18 07:35:41;;;;;;;20.77;17.27;;;;;;;2.34;76.56;96210.34;5012287;28;20091;-69
2020/12/18 07:38:14;;;;;;;20.38;16.13;;;;;;;2.39;76.27;96218.34;5010114;28;20046;-68
2020/12/18 07:40:39;;;;;;;;;;;;;;;2.45;76.70;96211.41;5010798;28;20131;-68
2020/12/18 07:43:13;;;;;;;27.70;18.05;;;;;;;2.51;76.57;96202.63;5010082;28;20441;-69
2020/12/18 07:45:46;;;;;;;16.83;13.63;;;;;;;2.55;76.57;96206.38;5008975;28;20507;-65
2020/12/18 07:48:17;;;;;;;20.35;16.15;;;;;;;2.49;76.65;96181.03;5010310;28;20034;-64
2020/12/18 07:51:05;;;;;;;19.80;15.27;;;;;;;2.71;76.76;96210.16;5012329;28;20065;-67
2020/12/18 07:53:32;;;;;;;20.67;15.90;;;;;;;2.79;75.90;96210.63;5003516;28;20050;-67
2020/12/18 07:56:02;;;;;;;22.45;17.92;;;;;;;2.85;76.33;96204.47;4990614;28;20046;-66
2020/12/18 07:58:28;;;;;;;24.13;17.67;;;;;;;2.91;76.10;96205.38;4989591;28;20069;-67
2020/12/18 08:01:18;;;;;;;26.48;16.50;;;;;;;2.96;76.04;96200.22;4990225;28;20491;-66
2020/12/18 08:03:46;;;;;;;22.63;16.30;;;;;;;2.97;75.48;96193.97;4989295;28;20042;-67
2020/12/18 08:06:20;;;;;;;21.55;16.40;;;;;;;3.10;75.70;96209.47;4990294;28;20185;-65
2020/12/18 08:08:52;;;;;;;21.38;13.85;;;;;;;3.03;75.12;96187.78;4991980;28;20031;-66
2020/12/18 08:11:18;;;;;;;20.52;15.35;;;;;;;3.16;75.23;96197.25;4990042;28;20043;-73
2020/12/18 08:13:44;;;;;;;19.98;15.80;;;;;;;3.28;75.23;96205.13;4997873;28;20504;-68
2020/12/18 08:16:12;;;;;;;18.77;14.52;;;;;;;3.27;74.70;96188.53;5009945;28;20088;-67
2020/12/18 08:18:38;;;;;;;16.48;14.65;;;;;;;3.41;74.84;96199.59;5009564;28;20045;-67
2020/12/18 08:21:05;;;;;;;14.25;12.75;;;;;;;3.46;74.88;96193.66;5011666;28;20030;-68
2020/12/18 08:23:34;;;;;;;17.17;14.93;;;;;;;3.50;74.90;96190.31;5007499;28;20522;-70
2020/12/18 08:26:02;;;;;;;15.32;13.57;;;;;;;3.59;74.73;96198.66;5010531;28;20121;-69
2020/12/18 08:28:29;;;;;;;17.13;13.90;;;;;;;3.61;74.49;96186.84;5008921;28;20038;-69
2020/12/18 08:30:57;;;;;;;15.73;13.35;;;;;;;3.60;74.40;96180.00;5009591;28;20073;-70
2020/12/18 08:33:23;;;;;;;17.17;14.60;;;;;;;3.75;74.48;96186.59;5009340;28;20030;-69
2020/12/18 08:35:52;;;;;;;15.45;13.82;;;;;;;3.81;74.16;96180.38;5011671;28;20026;-72
2020/12/18 08:38:18;;;;;;;14.10;12.40;;;;;;;3.74;74.25;96158.69;5009330;28;20391;-66
2020/12/18 08:40:45;;;;;;;15.93;13.75;;;;;;;3.83;74.18;96165.94;5006194;28;20050;-73
2020/12/18 08:43:11;;;;;;;14.85;13.25;;;;;;;3.99;74.01;96172.28;5009956;28;20036;-72
2020/12/18 08:45:43;;;;;;;15.13;13.50;;;;;;;3.99;74.00;96167.00;5009680;28;20128;-72
2020/12/18 08:48:10;;;;;;;14.00;12.60;;;;;;;4.08;73.86;96181.38;5011715;28;20026;-71
2020/12/18 08:50:36;;;;;;;15.55;12.68;;;;;;;4.20;73.87;96178.72;5008203;28;20403;-75
2020/12/18 08:53:13;;;;;;;13.50;12.07;;;;;;;4.13;73.73;96163.03;5009570;28;20451;-72
2020/12/18 08:55:39;;;;;;;14.27;12.77;;;;;;;4.25;74.06;96167.44;5009677;28;20488;-70
2020/12/18 08:58:09;;;;;;;17.30;13.52;;;;;;;4.39;73.71;96184.53;5009002;28;20096;-71
2020/12/18 09:00:35;;;;;;;13.90;12.50;;;;;;;4.31;73.55;96154.13;5008181;28;20053;-74
2020/12/18 09:03:03;;;;;;;15.77;12.13;;;;;;;4.53;73.44;96182.41;5011369;28;20110;-75
2020/12/18 09:05:31;;;;;;;17.15;13.18;;;;;;;4.44;73.51;96151.16;5009868;28;20092;-75
2020/12/18 09:07:57;;;;;;;12.32;11.02;;;;;;;4.67;73.48;96179.19;5009780;28;20550;-73
2020/12/18 09:10:42;;;;;;;14.93;11.73;;;;;;;4.76;73.46;96191.94;5009287;28;20038;-73
2020/12/18 09:13:22;;;;;;;12.30;11.10;;;;;;;4.86;73.01;96185.03;5009321;28;20038;-74
2020/12/18 09:15:47;;;;;;;13.23;11.65;;;;;;;4.96;72.72;96181.72;5008159;28;20368;-71
2020/12/18 09:18:15;;;;;;;11.98;10.77;;;;;;;5.04;72.74;96183.94;5012554;28;20177;-75
2020/12/18 09:20:43;;;;;;;13.35;10.63;;;;;;;5.16;72.60;96183.81;5014890;28;20038;-76
2020/12/18 09:23:16;;;;;;;13.30;11.63;;;;;;;5.24;71.85;96182.63;5012880;28;20046;-74
2020/12/18 09:25:42;;;;;;;12.48;11.05;;;;;;;5.28;71.75;96170.53;5013131;28;20073;-75
2020/12/18 09:28:18;;;;;;;11.60;10.38;;;;;;;5.37;71.65;96174.34;5001737;28;20042;-74
2020/12/18 09:30:50;;;;;;;11.50;10.30;;;;;;;5.46;71.51;96170.22;4993197;28;20043;-74
2020/12/18 09:33:27;;;;;;;12.10;10.23;;;;;;;5.56;71.60;96162.44;4992668;28;20034;-73
2020/12/18 09:35:54;;;;;;;12.20;10.88;;;;;;;5.65;71.09;96166.22;4994907;28;20160;-73
2020/12/18 09:38:25;;;;;;;14.05;8.77;;;;;;;5.73;70.63;96173.72;4992800;28;20046;-73
2020/12/18 09:40:51;;;;;;;11.15;9.18;;;;;;;5.81;70.43;96163.75;4992965;28;20046;-74
2020/12/18 09:43:16;;;;;;;10.65;8.93;;;;;;;5.54;70.04;96106.47;4992580;28;20087;-74
2020/12/18 09:45:42;;;;;;;12.02;8.90;;;;;;;5.87;70.42;96142.44;4992867;28;20046;-74
2020/12/18 09:48:07;;;;;;;10.48;8.20;;;;;;;6.03;70.03;96147.91;4994598;28;20050;-73
2020/12/18 09:50:32;;;;;;;9.35;8.40;;;;;;;6.12;69.64;96136.63;4992501;28;20437;-72
2020/12/18 09:52:58;;;;;;;12.02;8.13;;;;;;;6.23;69.49;96140.94;4992515;28;20042;-73
2020/12/18 09:55:23;;;;;;;9.50;8.02;;;;;;;6.36;69.88;96146.88;4991225;28;20054;-74
2020/12/18 09:57:48;;;;;;;7.82;6.80;;;;;;;6.41;68.40;96152.19;4992185;28;20046;-74
2020/12/18 10:00:14;;;;;;;7.57;6.88;;;;;;;6.40;68.66;96137.41;5029490;23;20131;-80
2020/12/18 10:02:39;;;;;;;8.15;7.25;;;;;;;6.53;68.46;96142.25;5014777;28;20106;-80
2020/12/18 10:05:05;;;;;;;8.25;7.45;;;;;;;6.56;67.67;96131.16;5012904;28;20034;-78
2020/12/18 10:07:31;;;;;;;7.60;6.70;;;;;;;6.64;67.03;96143.91;5012457;28;20030;-76
2020/12/18 10:09:56;;;;;;;6.82;6.22;;;;;;;6.69;67.44;96133.38;5011494;28;20029;-74
2020/12/18 10:12:22;;;;;;;6.50;5.90;;;;;;;6.61;66.29;96130.41;5011773;28;20029;-73
2020/12/18 10:14:47;;;;;;;6.95;6.00;;;;;;;6.79;65.74;96130.00;5013916;28;20045;-79
2020/12/18 10:17:12;;;;;;;8.82;6.55;;;;;;;6.90;65.74;96130.84;5011397;28;20053;-79
2020/12/18 10:19:38;;;;;;;8.57;6.63;;;;;;;6.91;65.40;96137.72;5010979;28;20505;-80
2020/12/18 10:22:03;;;;;;;8.60;6.68;;;;;;;6.86;64.72;96119.19;5012225;28;20038;-79
2020/12/18 10:24:29;;;;;;;6.93;6.05;;;;;;;6.99;65.93;96119.53;5016663;28;20360;-78
2020/12/18 10:26:54;;;;;;;12.20;6.80;;;;;;;7.04;65.31;96113.47;5033889;28;20029;-79
2020/12/18 10:29:19;;;;;;;7.72;6.97;;;;;;;7.09;65.86;96108.19;5030416;28;20068;-78
2020/12/18 10:31:45;;;;;;;7.68;6.57;;;;;;;7.18;65.08;96106.66;5032076;28;20033;-79
2020/12/18 10:34:10;;;;;;;7.10;6.18;;;;;;;7.28;64.47;96117.28;5032304;28;20399;-78
2020/12/18 10:36:35;;;;;;;10.07;5.50;;;;;;;6.91;63.97;96053.09;5030596;28;20045;-76
2020/12/18 10:39:01;;;;;;;6.85;6.22;;;;;;;7.28;64.33;96105.91;5031995;28;20505;-76
2020/12/18 10:41:26;;;;;;;6.60;6.00;;;;;;;7.18;64.18;96093.44;5032101;28;20133;-78
2020/12/18 10:43:52;;;;;;;6.38;5.70;;;;;;;7.38;64.34;96105.94;5031754;28;20399;-78
2020/12/18 10:46:18;;;;;;;6.53;5.95;;;;;;;7.43;63.99;96115.75;5031383;28;20041;-73
2020/12/18 10:48:44;;;;;;;7.75;5.40;;;;;;;7.54;63.61;96104.16;5030934;28;20040;-80
2020/12/18 10:51:09;;;;;;;6.63;5.90;;;;;;;7.62;63.51;96110.78;5033983;28;20025;-73
2020/12/18 10:53:34;;;;;;;7.70;5.97;;;;;;;7.69;63.09;96098.88;5030861;28;20064;-76
2020/12/18 10:56:00;;;;;;;7.70;6.32;;;;;;;7.70;62.81;96095.19;5031267;28;20029;-77
2020/12/18 10:58:26;;;;;;;9.57;6.25;;;;;;;7.73;62.90;96101.81;5028849;28;20029;-71
2020/12/18 11:00:51;;;;;;;8.48;6.40;;;;;;;7.83;62.31;96109.78;5029659;28;20672;-77
2020/12/18 11:03:16;;;;;;;10.38;7.18;;;;;;;7.85;62.15;96110.31;5030438;28;20386;-84
2020/12/18 11:05:41;;;;;;;10.65;6.68;;;;;;;7.83;61.94;96093.88;5032444;28;20051;-70
2020/12/18 11:08:07;;;;;;;6.57;5.82;;;;;;;7.87;61.92;96094.13;5029784;28;20124;-81
2020/12/18 11:10:32;;;;;;;7.53;6.22;;;;;;;7.85;61.38;96098.91;5030876;28;20048;-77
2020/12/18 11:12:57;;;;;;;6.38;5.72;;;;;;;7.78;60.66;96094.69;5030807;28;20056;-74
2020/12/18 11:15:24;;;;;;;7.05;5.75;;;;;;;7.98;60.62;96104.47;5031134;28;20029;-78
2020/12/18 11:17:50;;;;;;;6.53;5.93;;;;;;;7.94;60.42;96092.03;5031242;28;20053;-77
2020/12/18 11:20:15;;;;;;;6.00;5.50;;;;;;;8.14;60.28;96093.88;5030580;28;20065;-77
2020/12/18 11:22:40;;;;;;;5.80;5.15;;;;;;;8.13;60.08;96079.84;5018329;28;20486;-75
2020/12/18 11:25:06;;;;;;;9.25;6.20;;;;;;;8.15;59.94;96083.03;5017999;28;20031;-75
2020/12/18 11:27:31;;;;;;;6.75;5.95;;;;;;;8.33;60.25;96090.44;5029892;28;20104;-73